Time;durP1;ratioP1;P1;durP2;ratioP2;P2;SDS_P1;SDS_P2;PMS_P1;PMS_P2;Temp;Humidity;BMP_temperature;BMP_pressure;BME280_temperature;BME280_humidity;BME280_pressure;Samples;Min_cycle;Max_cycle;Signal;HPM_P1;HPM_P2
2022/05/18 00:00:27;;;;;;;9.40;6.85;;;;;;;;;;5014835;28;20047;-78
2022/05/18 00:03:04;;;;;;;8.02;6.88;;;;;;;;;;4985456;28;20074;-78
2022/05/18 00:05:31;;;;;;;7.88;7.07;;;;;;;;;;4993599;28;20133;-78
2022/05/18 00:07:57;;;;;;;7.97;7.05;;;;;;;;;;4989895;28;20578;-78
2022/05/18 00:10:23;;;;;;;8.23;7.15;;;;;;;;;;4985575;28;20260;-78
2022/05/18 00:12:50;;;;;;;7.95;7.07;;;;;;;;;;4990830;28;20090;-77
2022/05/18 00:15:17;;;;;;;8.85;7.40;;;;;;;;;;4982752;28;20077;-78
2022/05/18 00:17:43;;;;;;;8.38;7.45;;;;;;;;;;5003767;28;20117;-78
2022/05/18 00:20:13;;;;;;;7.88;6.95;;;;;;;;;;4998094;28;20061;-78
2022/05/18 00:22:55;;;;;;;7.70;6.93;;;;;;;;;;4997058;28;20116;-78
2022/05/18 00:25:23;;;;;;;8.90;7.47;;;;;;;;;;4988854;28;20430;-78
2022/05/18 00:27:49;;;;;;;9.10;7.82;;;;;;;;;;4996380;28;20321;-78
2022/05/18 00:30:17;;;;;;;9.65;6.57;;;;;;;;;;4986115;28;20042;-78
2022/05/18 00:32:44;;;;;;;9.38;7.57;;;;;;;;;;5025130;28;20118;-78
2022/05/18 00:35:10;;;;;;;8.40;7.22;;;;;;;;;;4989378;28;20753;-78
2022/05/18 00:37:36;;;;;;;8.43;7.15;;;;;;;;;;4992021;28;20042;-78
2022/05/18 00:40:02;;;;;;;8.70;7.38;;;;;;;;;;5004042;28;20056;-78
2022/05/18 00:42:29;;;;;;;10.65;7.65;;;;;;;;;;5004883;28;20045;-78
2022/05/18 00:44:55;;;;;;;9.13;7.40;;;;;;;;;;4990738;28;20045;-78
2022/05/18 00:47:22;;;;;;;8.23;7.43;;;;;;;;;;4989617;28;20043;-78
2022/05/18 00:49:55;;;;;;;8.75;7.78;;;;;;;;;;5000423;28;20046;-78
2022/05/18 00:52:31;;;;;;;8.98;8.00;;;;;;;;;;4994610;28;20136;-78
2022/05/18 00:54:58;;;;;;;8.98;8.00;;;;;;;;;;5005120;28;20046;-78
2022/05/18 00:57:31;;;;;;;8.75;7.25;;;;;;;;;;4991936;28;20135;-78
2022/05/18 00:59:59;;;;;;;10.05;7.85;;;;;;;;;;5006534;28;20435;-78
2022/05/18 01:02:28;;;;;;;10.55;7.60;;;;;;;;;;4993223;28;20099;-78
2022/05/18 01:04:55;;;;;;;8.82;7.53;;;;;;;;;;5000163;28;20077;-78
2022/05/18 01:07:25;;;;;;;10.02;8.20;;;;;;;;;;4991464;28;20081;-78
2022/05/18 01:09:51;;;;;;;8.27;7.43;;;;;;;;;;4997630;28;20046;-78
2022/05/18 01:12:18;;;;;;;9.25;8.10;;;;;;;;;;4994777;28;20054;-78
2022/05/18 01:14:56;;;;;;;9.38;7.57;;;;;;;;;;4987216;28;20042;-78
2022/05/18 01:17:25;;;;;;;8.77;7.88;;;;;;;;;;4986203;28;20435;-78
2022/05/18 01:19:52;;;;;;;8.32;7.47;;;;;;;;;;5012430;28;20057;-78
2022/05/18 01:22:18;;;;;;;7.97;7.18;;;;;;;;;;4999925;28;20049;-78
2022/05/18 01:24:52;;;;;;;9.00;7.57;;;;;;;;;;4993295;28;20058;-78
2022/05/18 01:27:17;;;;;;;8.50;7.70;;;;;;;;;;4994053;28;20094;-78
2022/05/18 01:29:44;;;;;;;9.50;7.65;;;;;;;;;;4991974;28;20049;-78
2022/05/18 01:32:13;;;;;;;8.80;7.97;;;;;;;;;;4997172;28;20047;-78
2022/05/18 01:34:42;;;;;;;12.95;8.02;;;;;;;;;;4997196;28;20498;-78
2022/05/18 01:37:09;;;;;;;8.10;7.18;;;;;;;;;;4992263;28;20503;-78
2022/05/18 01:39:41;;;;;;;8.40;7.50;;;;;;;;;;4977880;28;20402;-78
2022/05/18 01:42:07;;;;;;;8.80;7.65;;;;;;;;;;4988341;28;20120;-78
2022/05/18 01:44:34;;;;;;;9.75;7.88;;;;;;;;;;5004855;28;20038;-78
2022/05/18 01:47:00;;;;;;;10.75;7.78;;;;;;;;;;4995717;28;20062;-78
2022/05/18 01:49:26;;;;;;;9.60;8.40;;;;;;;;;;4980100;28;20050;-78
2022/05/18 01:51:53;;;;;;;9.52;8.02;;;;;;;;;;4992784;28;20115;-78
2022/05/18 01:54:20;;;;;;;10.48;8.00;;;;;;;;;;4989071;28;20058;-78
2022/05/18 01:56:46;;;;;;;10.88;8.27;;;;;;;;;;4996875;28;20042;-78
2022/05/18 01:59:12;;;;;;;9.90;8.23;;;;;;;;;;5003723;28;20101;-78
2022/05/18 02:01:39;;;;;;;9.23;8.32;;;;;;;;;;4986825;28;20045;-78
2022/05/18 02:04:05;;;;;;;9.38;7.95;;;;;;;;;;4995088;28;20048;-78
2022/05/18 02:06:32;;;;;;;9.23;8.18;;;;;;;;;;4990367;28;20046;-78
2022/05/18 02:08:59;;;;;;;10.60;8.93;;;;;;;;;;4983530;28;20047;-78
2022/05/18 02:11:25;;;;;;;9.40;8.25;;;;;;;;;;4999770;28;20039;-78
2022/05/18 02:13:55;;;;;;;11.27;8.38;;;;;;;;;;5003120;28;20042;-78
2022/05/18 02:16:21;;;;;;;10.30;8.38;;;;;;;;;;4994566;28;20039;-78
2022/05/18 02:18:47;;;;;;;9.68;8.05;;;;;;;;;;4996312;28;20113;-78
2022/05/18 02:21:13;;;;;;;10.65;8.93;;;;;;;;;;4990920;28;20117;-78
2022/05/18 02:23:40;;;;;;;8.90;8.10;;;;;;;;;;4999102;28;20521;-77
2022/05/18 02:26:07;;;;;;;10.07;8.93;;;;;;;;;;4995874;28;20058;-78
2022/05/18 02:28:33;;;;;;;9.10;8.20;;;;;;;;;;4991235;28;20062;-77
2022/05/18 02:30:59;;;;;;;10.27;8.77;;;;;;;;;;4987415;28;20061;-78
2022/05/18 02:33:25;;;;;;;10.85;8.75;;;;;;;;;;4981211;28;20504;-78
2022/05/18 02:35:51;;;;;;;9.05;8.15;;;;;;;;;;4987758;28;20042;-78
2022/05/18 02:38:17;;;;;;;10.38;8.63;;;;;;;;;;4992858;28;20038;-78
2022/05/18 02:40:43;;;;;;;10.85;9.15;;;;;;;;;;4991085;28;20053;-78
2022/05/18 02:43:09;;;;;;;10.05;8.95;;;;;;;;;;4987850;28;20049;-78
2022/05/18 02:45:35;;;;;;;9.93;8.85;;;;;;;;;;4992762;28;20095;-78
2022/05/18 02:48:01;;;;;;;10.40;8.65;;;;;;;;;;4993143;28;20061;-78
2022/05/18 02:50:28;;;;;;;11.45;8.68;;;;;;;;;;4996142;28;20049;-78
2022/05/18 02:52:54;;;;;;;9.55;8.52;;;;;;;;;;4998570;28;20053;-78
2022/05/18 02:58:06;;;;;;;11.60;9.02;;;;;;;;;;4982374;28;20104;-78
2022/05/18 03:00:32;;;;;;;10.63;9.30;;;;;;;;;;4993032;28;20133;-78
2022/05/18 03:02:58;;;;;;;10.88;9.27;;;;;;;;;;4980398;28;20129;-78
2022/05/18 03:05:24;;;;;;;10.35;8.95;;;;;;;;;;4989979;28;20096;-77
2022/05/18 03:07:50;;;;;;;11.07;9.38;;;;;;;;;;4988988;28;20054;-77
2022/05/18 03:10:18;;;;;;;10.95;9.40;;;;;;;;;;4999421;28;20057;-78
2022/05/18 03:12:44;;;;;;;11.43;10.10;;;;;;;;;;4997999;28;20057;-78
2022/05/18 03:15:11;;;;;;;11.10;10.00;;;;;;;;;;4978894;28;20050;-77
2022/05/18 03:17:37;;;;;;;10.77;9.77;;;;;;;;;;4989916;28;20045;-78
2022/05/18 03:20:03;;;;;;;11.52;10.10;;;;;;;;;;4978550;28;20402;-78
2022/05/18 03:25:15;;;;;;;11.20;9.82;;;;;;;;;;5018628;28;20058;-77
2022/05/18 03:27:44;;;;;;;11.40;10.18;;;;;;;;;;4990644;28;20111;-77
2022/05/18 03:30:11;;;;;;;11.38;9.75;;;;;;;;;;4992372;28;20054;-77
2022/05/18 03:32:37;;;;;;;11.23;10.13;;;;;;;;;;5000111;28;20070;-78
2022/05/18 03:35:04;;;;;;;11.98;10.13;;;;;;;;;;4987981;28;20050;-77
2022/05/18 03:37:30;;;;;;;11.75;10.48;;;;;;;;;;4994000;28;20053;-77
2022/05/18 03:39:57;;;;;;;11.75;9.90;;;;;;;;;;4988593;28;20136;-78
2022/05/18 03:42:23;;;;;;;11.75;9.85;;;;;;;;;;4991524;28;20089;-77
2022/05/18 03:44:49;;;;;;;11.77;10.57;;;;;;;;;;4987397;28;20054;-77
2022/05/18 03:47:15;;;;;;;11.88;10.43;;;;;;;;;;4994287;28;20049;-77
2022/05/18 03:49:41;;;;;;;10.68;9.68;;;;;;;;;;4979954;28;20800;-78
2022/05/18 03:52:07;;;;;;;11.13;10.00;;;;;;;;;;4987529;28;20038;-78
2022/05/18 03:54:33;;;;;;;11.75;10.25;;;;;;;;;;5004470;28;20041;-78
2022/05/18 03:56:59;;;;;;;12.13;10.77;;;;;;;;;;4993614;28;20041;-77
2022/05/18 03:59:26;;;;;;;11.80;10.60;;;;;;;;;;4998944;28;20125;-78
2022/05/18 04:01:52;;;;;;;12.95;11.57;;;;;;;;;;4987459;28;20054;-78
2022/05/18 04:04:18;;;;;;;12.38;11.07;;;;;;;;;;4994138;28;20046;-77
2022/05/18 04:06:44;;;;;;;11.73;10.45;;;;;;;;;;5002131;28;20053;-78
2022/05/18 04:09:10;;;;;;;13.43;11.68;;;;;;;;;;4996468;28;20056;-78
2022/05/18 04:11:36;;;;;;;13.10;10.60;;;;;;;;;;5000950;28;20383;-78
2022/05/18 04:14:02;;;;;;;12.90;11.55;;;;;;;;;;4996181;28;20056;-77
2022/05/18 04:16:28;;;;;;;12.82;11.35;;;;;;;;;;4989327;28;20038;-78
2022/05/18 04:18:54;;;;;;;12.32;11.13;;;;;;;;;;4992686;28;20046;-78
2022/05/18 04:21:20;;;;;;;12.25;11.02;;;;;;;;;;4992064;28;20054;-77
2022/05/18 04:23:46;;;;;;;12.98;10.80;;;;;;;;;;4989071;28;20105;-78
2022/05/18 04:26:12;;;;;;;13.23;11.82;;;;;;;;;;4988051;28;20057;-77
2022/05/18 04:28:38;;;;;;;16.63;12.18;;;;;;;;;;5000462;28;20073;-78
2022/05/18 04:31:04;;;;;;;13.10;11.90;;;;;;;;;;4994838;28;20049;-78
2022/05/18 04:33:30;;;;;;;12.80;11.60;;;;;;;;;;4997234;28;20046;-78
2022/05/18 04:35:57;;;;;;;11.85;10.65;;;;;;;;;;5005830;28;20394;-78
2022/05/18 04:38:23;;;;;;;12.80;11.60;;;;;;;;;;4992158;28;20125;-78
2022/05/18 04:40:49;;;;;;;12.77;11.50;;;;;;;;;;4992324;28;20497;-78
2022/05/18 04:43:20;;;;;;;14.00;12.60;;;;;;;;;;4983036;28;20545;-78
2022/05/18 04:45:46;;;;;;;13.38;11.68;;;;;;;;;;4993623;28;20045;-78
2022/05/18 04:48:17;;;;;;;13.27;11.90;;;;;;;;;;4990761;28;20121;-78
2022/05/18 04:50:44;;;;;;;13.23;11.80;;;;;;;;;;5019528;28;20117;-77
2022/05/18 04:53:11;;;;;;;13.07;11.85;;;;;;;;;;5007561;28;20043;-78
2022/05/18 04:55:37;;;;;;;13.48;12.07;;;;;;;;;;4994733;28;20104;-78
2022/05/18 04:58:06;;;;;;;12.88;11.48;;;;;;;;;;4988602;28;20102;-78
2022/05/18 05:00:32;;;;;;;12.95;11.30;;;;;;;;;;5026015;28;20402;-78
2022/05/18 05:03:02;;;;;;;12.70;11.40;;;;;;;;;;4982901;28;20066;-78
2022/05/18 05:05:28;;;;;;;14.60;13.10;;;;;;;;;;4989251;28;20054;-78
2022/05/18 05:07:57;;;;;;;13.27;11.82;;;;;;;;;;4978448;28;20050;-77
2022/05/18 05:10:23;;;;;;;14.20;12.15;;;;;;;;;;4982967;28;20130;-79
2022/05/18 05:12:49;;;;;;;12.77;11.43;;;;;;;;;;4984312;28;20047;-77
2022/05/18 05:15:16;;;;;;;13.38;11.98;;;;;;;;;;4976184;28;20407;-78
2022/05/18 05:17:42;;;;;;;13.20;11.93;;;;;;;;;;4996224;28;20045;-78
2022/05/18 05:20:11;;;;;;;13.80;12.40;;;;;;;;;;4989231;28;20038;-78
2022/05/18 05:22:37;;;;;;;14.88;13.02;;;;;;;;;;4990350;28;20053;-79
2022/05/18 05:25:04;;;;;;;15.20;13.30;;;;;;;;;;4991497;28;20054;-78
2022/05/18 05:27:33;;;;;;;14.20;12.70;;;;;;;;;;4998218;28;20061;-78
2022/05/18 05:30:00;;;;;;;14.57;13.10;;;;;;;;;;4985261;28;20046;-78
2022/05/18 05:32:26;;;;;;;14.93;13.38;;;;;;;;;;4996340;28;20054;-78
2022/05/18 05:34:53;;;;;;;15.35;13.35;;;;;;;;;;4997501;28;20490;-78
2022/05/18 05:37:19;;;;;;;15.05;13.15;;;;;;;;;;4977289;28;20039;-78
2022/05/18 05:39:45;;;;;;;15.57;13.95;;;;;;;;;;4987568;28;20066;-78
2022/05/18 05:42:11;;;;;;;15.75;13.73;;;;;;;;;;4983313;28;20065;-78
2022/05/18 05:44:37;;;;;;;15.10;13.57;;;;;;;;;;4978226;28;20380;-78
2022/05/18 05:47:03;;;;;;;14.93;13.35;;;;;;;;;;4984179;28;20049;-78
2022/05/18 05:49:30;;;;;;;16.00;14.32;;;;;;;;;;4975255;28;20617;-78
2022/05/18 05:51:58;;;;;;;16.25;14.20;;;;;;;;;;4980166;28;20438;-78
2022/05/18 05:54:26;;;;;;;15.50;13.75;;;;;;;;;;4977818;28;20060;-78
2022/05/18 05:56:56;;;;;;;15.88;14.27;;;;;;;;;;4978231;28;20042;-78
2022/05/18 05:59:25;;;;;;;16.77;15.02;;;;;;;;;;4980604;28;20050;-78
2022/05/18 06:01:51;;;;;;;17.35;15.07;;;;;;;;;;4976711;28;20051;-78
2022/05/18 06:04:18;;;;;;;16.27;14.57;;;;;;;;;;4977305;28;20047;-78
2022/05/18 06:06:44;;;;;;;16.85;15.15;;;;;;;;;;4996581;28;20073;-78
2022/05/18 06:09:11;;;;;;;16.20;14.50;;;;;;;;;;5002246;28;20056;-78
2022/05/18 06:11:40;;;;;;;16.98;15.20;;;;;;;;;;4998701;28;20223;-78
2022/05/18 06:14:06;;;;;;;16.20;14.57;;;;;;;;;;4998432;28;20044;-78
2022/05/18 06:16:32;;;;;;;18.75;14.98;;;;;;;;;;4999783;28;20042;-78
2022/05/18 06:18:59;;;;;;;17.13;15.43;;;;;;;;;;5023949;28;20058;-78
2022/05/18 06:21:26;;;;;;;17.25;15.38;;;;;;;;;;4994436;28;20718;-78
2022/05/18 06:23:52;;;;;;;16.30;14.40;;;;;;;;;;4999250;28;20111;-78
2022/05/18 06:26:18;;;;;;;19.38;14.73;;;;;;;;;;4999932;28;20169;-78
2022/05/18 06:28:44;;;;;;;16.63;14.95;;;;;;;;;;4992274;28;20054;-78
2022/05/18 06:31:10;;;;;;;15.45;13.73;;;;;;;;;;4996265;28;20050;-78
2022/05/18 06:33:37;;;;;;;14.50;13.15;;;;;;;;;;4988901;28;20126;-78
2022/05/18 06:36:03;;;;;;;17.90;13.98;;;;;;;;;;4996164;28;20482;-78
2022/05/18 06:38:30;;;;;;;15.38;13.70;;;;;;;;;;4995448;28;20050;-78
2022/05/18 06:43:41;;;;;;;14.10;12.65;;;;;;;;;;4997024;28;20050;-78
2022/05/18 06:46:08;;;;;;;13.98;12.63;;;;;;;;;;4981624;28;20073;-79
2022/05/18 06:48:34;;;;;;;15.07;12.48;;;;;;;;;;4986079;28;20048;-80
2022/05/18 06:51:00;;;;;;;14.80;13.20;;;;;;;;;;4994357;28;20069;-80
2022/05/18 06:53:27;;;;;;;13.98;12.38;;;;;;;;;;4987864;28;20092;-79
2022/05/18 06:55:53;;;;;;;14.68;11.60;;;;;;;;;;4997157;28;20046;-80
2022/05/18 06:58:19;;;;;;;12.60;11.30;;;;;;;;;;4992971;28;20129;-80
2022/05/18 07:00:45;;;;;;;10.85;9.65;;;;;;;;;;4991769;28;20046;-79
2022/05/18 07:03:11;;;;;;;11.70;10.50;;;;;;;;;;4998842;28;20184;-80
2022/05/18 07:05:38;;;;;;;12.45;10.38;;;;;;;;;;4997464;28;20100;-80
2022/05/18 07:08:04;;;;;;;13.35;11.65;;;;;;;;;;4998546;28;20049;-80
2022/05/18 07:10:30;;;;;;;17.63;11.95;;;;;;;;;;4997681;28;20054;-81
2022/05/18 07:12:59;;;;;;;13.73;11.90;;;;;;;;;;4992686;28;20042;-80
2022/05/18 07:15:25;;;;;;;15.02;12.13;;;;;;;;;;4995197;28;20080;-80
2022/05/18 07:17:51;;;;;;;16.40;11.63;;;;;;;;;;4993444;28;20057;-80
2022/05/18 07:20:17;;;;;;;14.02;12.55;;;;;;;;;;4995428;28;20120;-79
2022/05/18 07:22:43;;;;;;;14.77;12.50;;;;;;;;;;4996346;28;20125;-79
2022/05/18 07:25:09;;;;;;;15.05;13.27;;;;;;;;;;4993660;28;20073;-80
2022/05/18 07:27:35;;;;;;;17.35;13.35;;;;;;;;;;4997928;28;20072;-80
2022/05/18 07:30:03;;;;;;;17.40;13.23;;;;;;;;;;4999576;28;20454;-80
2022/05/18 07:32:29;;;;;;;17.25;14.40;;;;;;;;;;4992494;28;20470;-80
2022/05/18 07:34:55;;;;;;;15.52;13.55;;;;;;;;;;4996893;28;20139;-80
2022/05/18 07:37:22;;;;;;;15.02;13.43;;;;;;;;;;4994774;28;20066;-80
2022/05/18 07:39:48;;;;;;;17.00;13.55;;;;;;;;;;5003695;28;20077;-80
2022/05/18 07:42:14;;;;;;;16.25;14.55;;;;;;;;;;4996198;28;20061;-79
2022/05/18 07:44:40;;;;;;;18.23;15.00;;;;;;;;;;4993156;28;20190;-79
2022/05/18 07:47:07;;;;;;;17.23;15.43;;;;;;;;;;4989900;28;20035;-81
2022/05/18 07:49:37;;;;;;;17.60;15.77;;;;;;;;;;4999484;28;20042;-80
2022/05/18 07:52:03;;;;;;;17.65;14.45;;;;;;;;;;4992830;28;20038;-79
2022/05/18 07:54:29;;;;;;;18.23;15.65;;;;;;;;;;4992940;28;20054;-79
2022/05/18 07:56:55;;;;;;;19.35;15.45;;;;;;;;;;4998685;28;20490;-79
2022/05/18 07:59:21;;;;;;;21.00;16.08;;;;;;;;;;4994564;28;20050;-81
2022/05/18 08:01:47;;;;;;;18.10;16.17;;;;;;;;;;4992873;28;20371;-79
2022/05/18 08:04:13;;;;;;;19.17;16.38;;;;;;;;;;5000425;28;20081;-80
2022/05/18 08:06:40;;;;;;;17.25;15.55;;;;;;;;;;4994363;28;20984;-80
2022/05/18 08:09:06;;;;;;;17.27;15.43;;;;;;;;;;4999344;28;20128;-81
2022/05/18 08:17:02;;;;;;;19.52;17.42;;;;;;;;;;5013163;28;20053;-80
2022/05/18 08:19:29;;;;;;;19.73;17.20;;;;;;;;;;4985405;28;20192;-80
2022/05/18 08:21:55;;;;;;;20.38;18.08;;;;;;;;;;5001414;28;20049;-80
2022/05/18 08:24:30;;;;;;;19.70;17.60;;;;;;;;;;4990144;28;20053;-80
2022/05/18 08:26:56;;;;;;;19.55;17.60;;;;;;;;;;5000238;28;20078;-80
2022/05/18 08:29:28;;;;;;;19.38;17.33;;;;;;;;;;4989144;28;21597;-81
2022/05/18 08:31:56;;;;;;;20.38;18.20;;;;;;;;;;5000991;28;20054;-80
2022/05/18 08:34:22;;;;;;;20.67;18.52;;;;;;;;;;4993328;28;20714;-81
2022/05/18 08:36:49;;;;;;;22.48;18.17;;;;;;;;;;4999341;28;20045;-79
2022/05/18 08:39:15;;;;;;;20.23;16.65;;;;;;;;;;4994015;28;20050;-80
2022/05/18 08:41:44;;;;;;;18.27;16.38;;;;;;;;;;4999903;28;20054;-80
2022/05/18 08:44:15;;;;;;;21.15;16.15;;;;;;;;;;5003386;28;20125;-81
2022/05/18 08:46:55;;;;;;;17.88;16.05;;;;;;;;;;5001657;28;20134;-80
2022/05/18 08:49:36;;;;;;;19.27;15.82;;;;;;;;;;4997358;28;20042;-80
2022/05/18 08:52:21;;;;;;;20.00;16.73;;;;;;;;;;4992117;28;20112;-80
2022/05/18 08:54:54;;;;;;;19.70;16.02;;;;;;;;;;4988712;28;20117;-80
2022/05/18 08:57:22;;;;;;;18.10;16.15;;;;;;;;;;4991827;28;20119;-82
2022/05/18 08:59:51;;;;;;;20.48;15.60;;;;;;;;;;5001711;28;20048;-80
2022/05/18 09:02:19;;;;;;;21.05;14.95;;;;;;;;;;4992669;28;20042;-80
2022/05/18 09:04:50;;;;;;;19.70;16.17;;;;;;;;;;4996709;28;20084;-80
2022/05/18 09:07:18;;;;;;;17.98;15.75;;;;;;;;;;4999538;28;20053;-80
2022/05/18 09:12:47;;;;;;;18.75;14.90;;;;;;;;;;4988122;28;20064;-80
2022/05/18 09:15:17;;;;;;;17.67;14.57;;;;;;;;;;5000315;28;20414;-80
2022/05/18 09:18:22;;;;;;;18.77;15.45;;;;;;;;;;4996044;28;20038;-80
2022/05/18 09:20:50;;;;;;;19.63;14.65;;;;;;;;;;4950533;28;20130;-80
2022/05/18 09:23:22;;;;;;;17.55;14.32;;;;;;;;;;4949158;28;20051;-80
2022/05/18 09:25:47;;;;;;;15.88;13.85;;;;;;;;;;4969454;28;20081;-81
2022/05/18 09:28:38;;;;;;;16.20;14.50;;;;;;;;;;4993249;28;20043;-80
2022/05/18 09:31:13;;;;;;;19.77;14.55;;;;;;;;;;4998638;28;20050;-80
2022/05/18 09:33:58;;;;;;;17.65;13.45;;;;;;;;;;5003094;28;20125;-80
2022/05/18 09:36:42;;;;;;;19.33;14.82;;;;;;;;;;4992981;28;20104;-80
2022/05/18 09:39:11;;;;;;;16.65;13.57;;;;;;;;;;4998242;28;20093;-80
2022/05/18 09:41:59;;;;;;;20.73;14.63;;;;;;;;;;5034291;28;20053;-80
2022/05/18 09:44:36;;;;;;;17.30;14.52;;;;;;;;;;4987997;28;20050;-80
2022/05/18 09:47:05;;;;;;;16.23;14.05;;;;;;;;;;5005603;28;20045;-80
2022/05/18 09:49:38;;;;;;;20.25;14.10;;;;;;;;;;4996252;28;20050;-80
2022/05/18 09:52:05;;;;;;;20.05;14.50;;;;;;;;;;5000851;28;20049;-80
2022/05/18 09:54:32;;;;;;;18.08;14.75;;;;;;;;;;4992710;28;20130;-80
2022/05/18 09:57:07;;;;;;;16.48;14.38;;;;;;;;;;5003234;28;20057;-80
2022/05/18 09:59:36;;;;;;;19.38;15.48;;;;;;;;;;4988754;28;20074;-80
2022/05/18 10:07:45;;;;;;;18.75;15.70;;;;;;;;;;5003675;28;20081;-80
2022/05/18 10:10:20;;;;;;;18.67;14.82;;;;;;;;;;5000495;28;20056;-79
2022/05/18 10:12:58;;;;;;;18.33;14.77;;;;;;;;;;4994022;28;20435;-80
2022/05/18 10:15:24;;;;;;;18.52;14.63;;;;;;;;;;4982410;28;20098;-80
2022/05/18 10:17:55;;;;;;;20.80;15.20;;;;;;;;;;4995275;28;20509;-80
2022/05/18 10:20:33;;;;;;;16.88;13.93;;;;;;;;;;4980095;28;20054;-80
2022/05/18 10:22:59;;;;;;;20.52;15.60;;;;;;;;;;4987882;28;20137;-80
2022/05/18 10:25:26;;;;;;;17.83;14.80;;;;;;;;;;4991828;28;20051;-79
2022/05/18 10:27:54;;;;;;;18.10;16.15;;;;;;;;;;4995707;28;20159;-80
2022/05/18 10:30:28;;;;;;;17.83;15.35;;;;;;;;;;4991654;28;20050;-79
2022/05/18 10:32:54;;;;;;;22.08;16.23;;;;;;;;;;4993600;28;20081;-79
2022/05/18 10:35:36;;;;;;;19.35;15.65;;;;;;;;;;4994468;28;20480;-80
2022/05/18 10:38:14;;;;;;;17.15;15.07;;;;;;;;;;4985888;28;20061;-79
2022/05/18 10:40:40;;;;;;;19.90;14.48;;;;;;;;;;4991894;28;20121;-80
2022/05/18 10:43:22;;;;;;;18.50;14.85;;;;;;;;;;4991861;28;20454;-79
2022/05/18 10:45:55;;;;;;;18.52;14.38;;;;;;;;;;4991753;28;20042;-80
2022/05/18 10:48:23;;;;;;;16.30;13.75;;;;;;;;;;4993096;28;20058;-80
2022/05/18 10:50:58;;;;;;;18.50;13.82;;;;;;;;;;4999860;28;20437;-80
2022/05/18 10:53:33;;;;;;;17.13;13.73;;;;;;;;;;4989595;28;20062;-80
2022/05/18 10:56:03;;;;;;;18.42;14.52;;;;;;;;;;4995952;28;20057;-80
2022/05/18 10:58:45;;;;;;;20.65;14.02;;;;;;;;;;4989686;28;20437;-80
2022/05/18 11:01:24;;;;;;;17.98;13.07;;;;;;;;;;4992218;28;20043;-80
2022/05/18 11:04:00;;;;;;;18.55;13.27;;;;;;;;;;4986156;28;20116;-80
2022/05/18 11:06:28;;;;;;;18.05;13.77;;;;;;;;;;4986771;28;20164;-80
2022/05/18 11:08:57;;;;;;;14.10;11.65;;;;;;;;;;4988850;28;20564;-80
2022/05/18 11:11:40;;;;;;;16.30;12.75;;;;;;;;;;4990169;28;20038;-80
2022/05/18 11:14:19;;;;;;;15.60;12.25;;;;;;;;;;4996594;28;20041;-81
2022/05/18 11:16:51;;;;;;;14.52;11.57;;;;;;;;;;4991080;28;20125;-80
2022/05/18 11:19:29;;;;;;;16.08;11.90;;;;;;;;;;4984468;28;20054;-80
2022/05/18 11:22:18;;;;;;;16.98;12.25;;;;;;;;;;5000533;28;20070;-80
2022/05/18 11:24:47;;;;;;;13.93;11.35;;;;;;;;;;4985855;28;20058;-80
2022/05/18 11:27:39;;;;;;;16.65;11.27;;;;;;;;;;4995196;28;20790;-80
2022/05/18 11:30:08;;;;;;;15.07;10.93;;;;;;;;;;4988456;28;20093;-79
2022/05/18 11:32:38;;;;;;;13.43;9.38;;;;;;;;;;5000022;28;20057;-79
2022/05/18 11:35:17;;;;;;;13.05;9.75;;;;;;;;;;4996717;28;20092;-79
2022/05/18 11:38:00;;;;;;;13.20;9.63;;;;;;;;;;4991744;28;20574;-79
2022/05/18 11:40:26;;;;;;;11.40;8.45;;;;;;;;;;4987156;28;20038;-80
2022/05/18 11:43:25;;;;;;;11.57;8.38;;;;;;;;;;4996674;28;20465;-79
2022/05/18 11:46:05;;;;;;;10.20;8.20;;;;;;;;;;4994592;28;20052;-79
2022/05/18 11:48:57;;;;;;;10.63;7.65;;;;;;;;;;4997422;28;20057;-79
2022/05/18 11:51:29;;;;;;;10.95;7.53;;;;;;;;;;4965967;28;20137;-80
2022/05/18 11:54:01;;;;;;;13.23;7.63;;;;;;;;;;4978914;28;20395;-78
2022/05/18 11:56:46;;;;;;;10.60;6.60;;;;;;;;;;5000606;28;20043;-78
2022/05/18 11:59:44;;;;;;;10.32;6.45;;;;;;;;;;4990621;28;20085;-78
2022/05/18 12:02:13;;;;;;;10.75;6.03;;;;;;;;;;4984994;28;20047;-79
2022/05/18 12:04:55;;;;;;;7.90;5.40;;;;;;;;;;4989764;28;20060;-79
2022/05/18 12:07:37;;;;;;;7.72;5.22;;;;;;;;;;4993201;28;20111;-79
2022/05/18 12:10:03;;;;;;;7.90;5.22;;;;;;;;;;5001264;28;20085;-80
2022/05/18 12:12:47;;;;;;;7.07;4.57;;;;;;;;;;4997181;28;20078;-80
2022/05/18 12:15:22;;;;;;;8.23;4.65;;;;;;;;;;5001213;28;20037;-80
2022/05/18 12:17:51;;;;;;;6.70;4.53;;;;;;;;;;5017689;28;20189;-79
2022/05/18 12:20:21;;;;;;;8.40;4.95;;;;;;;;;;4997561;28;20117;-79
2022/05/18 12:22:49;;;;;;;9.85;5.00;;;;;;;;;;5004791;28;20050;-79
2022/05/18 12:25:18;;;;;;;7.78;5.00;;;;;;;;;;4996325;28;20113;-79
2022/05/18 12:27:44;;;;;;;6.53;4.50;;;;;;;;;;4992571;28;20056;-80
2022/05/18 12:30:12;;;;;;;9.55;4.70;;;;;;;;;;4998453;28;20046;-79
2022/05/18 12:32:38;;;;;;;7.35;4.30;;;;;;;;;;5004423;28;20053;-79
2022/05/18 12:35:08;;;;;;;5.60;3.70;;;;;;;;;;4991039;28;20545;-79
2022/05/18 12:37:35;;;;;;;4.25;2.97;;;;;;;;;;5027117;28;20187;-80
2022/05/18 12:40:06;;;;;;;4.38;2.83;;;;;;;;;;4998011;28;20042;-79
2022/05/18 12:42:34;;;;;;;4.00;2.42;;;;;;;;;;4998272;28;20042;-80
2022/05/18 12:45:13;;;;;;;4.65;2.70;;;;;;;;;;4998166;28;20522;-79
2022/05/18 12:47:52;;;;;;;4.57;2.70;;;;;;;;;;5002943;28;20046;-80
2022/05/18 12:50:30;;;;;;;5.28;2.80;;;;;;;;;;4989300;28;20053;-80
2022/05/18 12:52:58;;;;;;;5.18;2.88;;;;;;;;;;5003495;28;20084;-80
2022/05/18 12:55:36;;;;;;;4.70;2.65;;;;;;;;;;4996077;28;20621;-80
2022/05/18 12:58:12;;;;;;;5.80;3.13;;;;;;;;;;4996668;28;20049;-80
2022/05/18 13:00:38;;;;;;;6.80;4.20;;;;;;;;;;4994980;28;20094;-80
2022/05/18 13:03:09;;;;;;;6.68;4.15;;;;;;;;;;4999734;28;20445;-80
2022/05/18 13:05:46;;;;;;;5.72;3.03;;;;;;;;;;4995577;28;20042;-79
2022/05/18 13:08:18;;;;;;;4.43;3.38;;;;;;;;;;4989194;28;20056;-79
2022/05/18 13:11:13;;;;;;;4.05;2.60;;;;;;;;;;4995701;28;20045;-79
2022/05/18 13:13:58;;;;;;;4.10;2.50;;;;;;;;;;4965488;28;20070;-79
2022/05/18 13:16:39;;;;;;;4.25;2.30;;;;;;;;;;5002512;28;20498;-80
2022/05/18 13:19:14;;;;;;;5.75;2.78;;;;;;;;;;4985053;28;20038;-79
2022/05/18 13:21:44;;;;;;;4.57;2.40;;;;;;;;;;4989102;28;20050;-79
2022/05/18 13:24:12;;;;;;;4.90;3.03;;;;;;;;;;4989363;28;20038;-78
2022/05/18 13:26:48;;;;;;;4.03;2.30;;;;;;;;;;4990020;28;20100;-80
2022/05/18 13:29:30;;;;;;;5.18;2.58;;;;;;;;;;4993654;28;20049;-79
2022/05/18 13:32:05;;;;;;;3.30;2.25;;;;;;;;;;4997415;28;21590;-79
2022/05/18 13:34:37;;;;;;;4.50;2.25;;;;;;;;;;4994815;28;20054;-79
2022/05/18 13:37:04;;;;;;;2.97;2.13;;;;;;;;;;4996490;28;20121;-79
2022/05/18 13:39:33;;;;;;;3.38;2.20;;;;;;;;;;4992232;28;20041;-79
2022/05/18 13:42:02;;;;;;;3.90;2.45;;;;;;;;;;4999464;28;20046;-79
2022/05/18 13:44:28;;;;;;;4.75;2.25;;;;;;;;;;4994897;28;20039;-80
2022/05/18 13:46:55;;;;;;;2.38;2.08;;;;;;;;;;4997649;28;20037;-80
2022/05/18 13:49:24;;;;;;;3.22;2.25;;;;;;;;;;4999363;28;21046;-79
2022/05/18 13:51:52;;;;;;;3.30;2.20;;;;;;;;;;4999592;28;20073;-80
2022/05/18 13:54:24;;;;;;;2.47;1.95;;;;;;;;;;4996556;28;20042;-80
2022/05/18 13:56:52;;;;;;;4.67;2.10;;;;;;;;;;4994500;28;20042;-78
2022/05/18 13:59:22;;;;;;;3.47;1.73;;;;;;;;;;4993978;28;20131;-79
2022/05/18 14:01:50;;;;;;;2.85;1.75;;;;;;;;;;4991968;28;20049;-79
2022/05/18 14:04:23;;;;;;;4.32;1.80;;;;;;;;;;4997694;28;20406;-79
2022/05/18 14:06:49;;;;;;;2.28;1.50;;;;;;;;;;4992304;28;20426;-79
2022/05/18 14:09:17;;;;;;;2.45;1.73;;;;;;;;;;4994964;28;20122;-79
2022/05/18 14:11:43;;;;;;;4.22;1.80;;;;;;;;;;4988760;28;20060;-78
2022/05/18 14:14:09;;;;;;;1.80;1.70;;;;;;;;;;5001676;28;20075;-78
2022/05/18 14:16:42;;;;;;;2.42;1.70;;;;;;;;;;4999510;28;20590;-79
2022/05/18 14:19:09;;;;;;;6.60;1.95;;;;;;;;;;4990029;28;20053;-78
2022/05/18 14:21:40;;;;;;;3.13;1.88;;;;;;;;;;5003035;28;20493;-79
2022/05/18 14:24:09;;;;;;;2.72;2.13;;;;;;;;;;4989165;28;20050;-77
2022/05/18 14:26:39;;;;;;;4.03;1.90;;;;;;;;;;5014257;28;20038;-78
2022/05/18 14:29:07;;;;;;;3.10;1.60;;;;;;;;;;4992616;28;20053;-79
2022/05/18 14:31:36;;;;;;;3.00;1.70;;;;;;;;;;4990998;28;20070;-78
2022/05/18 14:34:04;;;;;;;4.10;1.63;;;;;;;;;;4996361;28;20119;-79
2022/05/18 14:36:38;;;;;;;3.30;2.10;;;;;;;;;;4993541;28;20046;-79
2022/05/18 14:39:16;;;;;;;2.17;1.80;;;;;;;;;;4992905;28;20050;-79
2022/05/18 14:41:45;;;;;;;2.08;1.50;;;;;;;;;;4986391;28;20498;-79
2022/05/18 14:44:25;;;;;;;1.77;1.58;;;;;;;;;;4990110;28;20045;-79
2022/05/18 14:46:56;;;;;;;2.47;1.48;;;;;;;;;;4995363;28;20041;-79
2022/05/18 14:49:23;;;;;;;1.70;1.52;;;;;;;;;;4990326;28;20490;-79
2022/05/18 14:51:55;;;;;;;1.75;1.40;;;;;;;;;;4995043;28;20132;-79
2022/05/18 14:54:27;;;;;;;2.85;1.35;;;;;;;;;;4998048;28;20046;-80
2022/05/18 14:56:57;;;;;;;3.13;1.40;;;;;;;;;;4993670;28;20061;-81
2022/05/18 14:59:25;;;;;;;2.00;1.35;;;;;;;;;;4992024;28;20486;-81
2022/05/18 15:01:51;;;;;;;3.85;1.90;;;;;;;;;;4990378;28;20073;-81
2022/05/18 15:04:19;;;;;;;1.52;1.42;;;;;;;;;;4979076;28;20134;-83